sensor_id;sensor_type;location;lat;lon;timestamp;P1;durP1;ratioP1;P2;durP2;ratioP2
56927;SDS011;60850;52.502;13.426;2022-08-19T00:01:19;11.65;;;9.73;;
56927;SDS011;60850;52.502;13.426;2022-08-19T00:03:47;12.68;;;10.15;;
56927;SDS011;60850;52.502;13.426;2022-08-19T00:06:14;14.60;;;10.13;;
56927;SDS011;60850;52.502;13.426;2022-08-19T00:08:42;11.30;;;9.93;;
56927;SDS011;60850;52.502;13.426;2022-08-19T00:11:10;14.43;;;10.57;;
56927;SDS011;60850;52.502;13.426;2022-08-19T00:13:37;12.20;;;9.27;;
56927;SDS011;60850;52.502;13.426;2022-08-19T00:16:06;11.75;;;9.98;;
56927;SDS011;60850;52.502;13.426;2022-08-19T00:18:34;12.32;;;9.77;;
56927;SDS011;60850;52.502;13.426;2022-08-19T00:21:01;11.18;;;9.98;;
56927;SDS011;60850;52.502;13.426;2022-08-19T00:23:28;12.57;;;10.23;;
56927;SDS011;60850;52.502;13.426;2022-08-19T00:25:55;10.60;;;9.50;;
56927;SDS011;60850;52.502;13.426;2022-08-19T00:28:22;12.45;;;9.73;;
56927;SDS011;60850;52.502;13.426;2022-08-19T00:30:49;12.23;;;10.30;;
56927;SDS011;60850;52.502;13.426;2022-08-19T00:33:18;11.23;;;10.02;;
56927;SDS011;60850;52.502;13.426;2022-08-19T00:35:45;13.07;;;10.65;;
56927;SDS011;60850;52.502;13.426;2022-08-19T00:38:12;13.02;;;10.65;;
56927;SDS011;60850;52.502;13.426;2022-08-19T00:40:40;11.93;;;10.63;;
56927;SDS011;60850;52.502;13.426;2022-08-19T00:43:09;16.75;;;10.63;;
56927;SDS011;60850;52.502;13.426;2022-08-19T00:45:38;15.18;;;10.93;;
56927;SDS011;60850;52.502;13.426;2022-08-19T00:48:07;15.13;;;11.13;;
56927;SDS011;60850;52.502;13.426;2022-08-19T00:50:35;25.00;;;13.10;;
56927;SDS011;60850;52.502;13.426;2022-08-19T00:53:05;17.52;;;11.98;;
56927;SDS011;60850;52.502;13.426;2022-08-19T00:55:33;13.85;;;11.30;;
56927;SDS011;60850;52.502;13.426;2022-08-19T00:58:01;18.08;;;12.35;;
56927;SDS011;60850;52.502;13.426;2022-08-19T01:00:32;16.45;;;12.07;;
56927;SDS011;60850;52.502;13.426;2022-08-19T01:03:02;16.13;;;11.98;;
56927;SDS011;60850;52.502;13.426;2022-08-19T01:05:29;15.57;;;11.95;;
56927;SDS011;60850;52.502;13.426;2022-08-19T01:07:58;17.55;;;12.32;;
56927;SDS011;60850;52.502;13.426;2022-08-19T01:10:29;16.60;;;12.00;;
56927;SDS011;60850;52.502;13.426;2022-08-19T01:13:00;16.52;;;13.27;;
56927;SDS011;60850;52.502;13.426;2022-08-19T01:15:29;14.65;;;11.85;;
56927;SDS011;60850;52.502;13.426;2022-08-19T01:17:58;14.85;;;11.27;;
56927;SDS011;60850;52.502;13.426;2022-08-19T01:20:27;15.05;;;12.15;;
56927;SDS011;60850;52.502;13.426;2022-08-19T01:22:56;16.50;;;12.18;;
56927;SDS011;60850;52.502;13.426;2022-08-19T01:25:26;15.98;;;12.43;;
56927;SDS011;60850;52.502;13.426;2022-08-19T01:27:56;16.40;;;12.10;;
56927;SDS011;60850;52.502;13.426;2022-08-19T01:30:25;21.67;;;12.90;;
56927;SDS011;60850;52.502;13.426;2022-08-19T01:32:54;17.35;;;12.23;;
56927;SDS011;60850;52.502;13.426;2022-08-19T01:35:22;15.50;;;12.80;;
56927;SDS011;60850;52.502;13.426;2022-08-19T01:37:50;18.65;;;13.07;;
56927;SDS011;60850;52.502;13.426;2022-08-19T01:40:21;14.93;;;12.30;;
56927;SDS011;60850;52.502;13.426;2022-08-19T01:42:49;15.43;;;12.15;;
56927;SDS011;60850;52.502;13.426;2022-08-19T01:45:17;18.42;;;12.75;;
56927;SDS011;60850;52.502;13.426;2022-08-19T01:47:47;15.25;;;12.63;;
56927;SDS011;60850;52.502;13.426;2022-08-19T01:50:14;16.20;;;12.40;;
56927;SDS011;60850;52.502;13.426;2022-08-19T01:52:41;16.73;;;12.07;;
56927;SDS011;60850;52.502;13.426;2022-08-19T01:55:12;18.98;;;13.70;;
56927;SDS011;60850;52.502;13.426;2022-08-19T01:57:44;19.83;;;14.32;;
56927;SDS011;60850;52.502;13.426;2022-08-19T02:00:15;18.95;;;12.75;;
56927;SDS011;60850;52.502;13.426;2022-08-19T02:02:43;21.38;;;13.48;;
56927;SDS011;60850;52.502;13.426;2022-08-19T02:05:11;18.77;;;13.52;;
56927;SDS011;60850;52.502;13.426;2022-08-19T02:07:39;26.67;;;14.02;;
56927;SDS011;60850;52.502;13.426;2022-08-19T02:10:08;22.25;;;13.07;;
56927;SDS011;60850;52.502;13.426;2022-08-19T02:12:38;17.77;;;13.23;;
56927;SDS011;60850;52.502;13.426;2022-08-19T02:15:07;20.05;;;12.55;;
56927;SDS011;60850;52.502;13.426;2022-08-19T02:17:34;23.33;;;14.43;;
56927;SDS011;60850;52.502;13.426;2022-08-19T02:20:02;17.98;;;11.98;;
56927;SDS011;60850;52.502;13.426;2022-08-19T02:22:30;17.83;;;12.93;;
56927;SDS011;60850;52.502;13.426;2022-08-19T02:24:58;15.27;;;10.90;;
56927;SDS011;60850;52.502;13.426;2022-08-19T02:27:25;15.68;;;11.30;;
56927;SDS011;60850;52.502;13.426;2022-08-19T02:29:52;17.40;;;11.48;;
56927;SDS011;60850;52.502;13.426;2022-08-19T02:32:20;14.85;;;11.10;;
56927;SDS011;60850;52.502;13.426;2022-08-19T02:34:47;16.02;;;11.38;;
56927;SDS011;60850;52.502;13.426;2022-08-19T02:37:14;11.75;;;10.45;;
56927;SDS011;60850;52.502;13.426;2022-08-19T02:39:55;15.15;;;11.80;;
56927;SDS011;60850;52.502;13.426;2022-08-19T02:42:22;15.35;;;11.68;;
56927;SDS011;60850;52.502;13.426;2022-08-19T02:44:49;15.45;;;12.07;;
56927;SDS011;60850;52.502;13.426;2022-08-19T02:47:17;17.73;;;13.13;;
56927;SDS011;60850;52.502;13.426;2022-08-19T02:49:45;18.25;;;13.00;;
56927;SDS011;60850;52.502;13.426;2022-08-19T02:52:14;15.45;;;11.68;;
56927;SDS011;60850;52.502;13.426;2022-08-19T02:54:41;14.35;;;11.30;;
56927;SDS011;60850;52.502;13.426;2022-08-19T02:57:08;15.82;;;12.45;;
56927;SDS011;60850;52.502;13.426;2022-08-19T02:59:35;15.57;;;11.48;;
56927;SDS011;60850;52.502;13.426;2022-08-19T03:02:02;13.90;;;11.07;;
56927;SDS011;60850;52.502;13.426;2022-08-19T03:04:32;15.40;;;11.35;;
56927;SDS011;60850;52.502;13.426;2022-08-19T03:07:00;14.80;;;11.77;;
56927;SDS011;60850;52.502;13.426;2022-08-19T03:09:27;15.48;;;11.57;;
56927;SDS011;60850;52.502;13.426;2022-08-19T03:11:55;13.32;;;11.75;;
56927;SDS011;60850;52.502;13.426;2022-08-19T03:14:22;14.95;;;11.50;;
56927;SDS011;60850;52.502;13.426;2022-08-19T03:16:50;14.90;;;11.13;;
56927;SDS011;60850;52.502;13.426;2022-08-19T03:19:19;15.98;;;11.70;;
56927;SDS011;60850;52.502;13.426;2022-08-19T03:21:47;19.08;;;12.23;;
56927;SDS011;60850;52.502;13.426;2022-08-19T03:24:16;13.43;;;10.45;;
56927;SDS011;60850;52.502;13.426;2022-08-19T03:26:44;14.60;;;10.80;;
56927;SDS011;60850;52.502;13.426;2022-08-19T03:29:13;14.27;;;10.30;;
56927;SDS011;60850;52.502;13.426;2022-08-19T03:31:40;14.00;;;10.88;;
56927;SDS011;60850;52.502;13.426;2022-08-19T03:34:09;15.18;;;11.25;;
56927;SDS011;60850;52.502;13.426;2022-08-19T03:36:37;15.13;;;11.50;;
56927;SDS011;60850;52.502;13.426;2022-08-19T03:39:04;14.85;;;11.15;;
56927;SDS011;60850;52.502;13.426;2022-08-19T03:41:37;15.75;;;11.52;;
56927;SDS011;60850;52.502;13.426;2022-08-19T03:44:06;16.50;;;12.63;;
56927;SDS011;60850;52.502;13.426;2022-08-19T03:46:33;14.40;;;11.77;;
56927;SDS011;60850;52.502;13.426;2022-08-19T03:49:03;12.90;;;11.32;;
56927;SDS011;60850;52.502;13.426;2022-08-19T03:51:34;14.75;;;12.00;;
56927;SDS011;60850;52.502;13.426;2022-08-19T03:54:04;13.70;;;11.75;;
56927;SDS011;60850;52.502;13.426;2022-08-19T03:56:33;13.23;;;11.32;;
56927;SDS011;60850;52.502;13.426;2022-08-19T03:59:02;17.02;;;11.68;;
56927;SDS011;60850;52.502;13.426;2022-08-19T04:01:30;13.68;;;11.20;;
56927;SDS011;60850;52.502;13.426;2022-08-19T04:03:58;13.95;;;11.38;;
56927;SDS011;60850;52.502;13.426;2022-08-19T04:06:26;18.45;;;12.60;;
56927;SDS011;60850;52.502;13.426;2022-08-19T04:08:54;15.02;;;12.40;;
56927;SDS011;60850;52.502;13.426;2022-08-19T04:11:24;14.68;;;12.30;;
56927;SDS011;60850;52.502;13.426;2022-08-19T04:13:53;14.93;;;12.32;;
56927;SDS011;60850;52.502;13.426;2022-08-19T04:16:25;16.10;;;12.25;;
56927;SDS011;60850;52.502;13.426;2022-08-19T04:18:54;16.63;;;12.37;;
56927;SDS011;60850;52.502;13.426;2022-08-19T04:21:22;14.45;;;11.88;;
56927;SDS011;60850;52.502;13.426;2022-08-19T04:23:51;17.30;;;12.65;;
56927;SDS011;60850;52.502;13.426;2022-08-19T04:26:19;15.25;;;11.05;;
56927;SDS011;60850;52.502;13.426;2022-08-19T04:28:48;13.93;;;11.38;;
56927;SDS011;60850;52.502;13.426;2022-08-19T04:31:17;16.67;;;12.40;;
56927;SDS011;60850;52.502;13.426;2022-08-19T04:33:47;15.13;;;11.98;;
56927;SDS011;60850;52.502;13.426;2022-08-19T04:36:16;14.98;;;11.90;;
56927;SDS011;60850;52.502;13.426;2022-08-19T04:38:45;15.68;;;12.13;;
56927;SDS011;60850;52.502;13.426;2022-08-19T04:41:12;16.80;;;12.75;;
56927;SDS011;60850;52.502;13.426;2022-08-19T04:43:57;14.60;;;12.10;;
56927;SDS011;60850;52.502;13.426;2022-08-19T04:46:24;16.05;;;11.65;;
56927;SDS011;60850;52.502;13.426;2022-08-19T04:48:52;13.48;;;11.23;;
56927;SDS011;60850;52.502;13.426;2022-08-19T04:51:22;15.13;;;11.98;;
56927;SDS011;60850;52.502;13.426;2022-08-19T04:53:49;19.73;;;12.38;;
56927;SDS011;60850;52.502;13.426;2022-08-19T04:56:17;13.15;;;11.35;;
56927;SDS011;60850;52.502;13.426;2022-08-19T04:58:48;15.00;;;11.50;;
56927;SDS011;60850;52.502;13.426;2022-08-19T05:01:17;13.55;;;11.55;;
56927;SDS011;60850;52.502;13.426;2022-08-19T05:03:46;14.70;;;11.88;;
56927;SDS011;60850;52.502;13.426;2022-08-19T05:06:15;14.23;;;11.57;;
56927;SDS011;60850;52.502;13.426;2022-08-19T05:08:44;14.00;;;10.93;;
56927;SDS011;60850;52.502;13.426;2022-08-19T05:11:12;15.07;;;12.63;;
56927;SDS011;60850;52.502;13.426;2022-08-19T05:13:39;13.63;;;11.40;;
56927;SDS011;60850;52.502;13.426;2022-08-19T05:16:07;13.02;;;10.13;;
56927;SDS011;60850;52.502;13.426;2022-08-19T05:18:34;15.93;;;11.15;;
56927;SDS011;60850;52.502;13.426;2022-08-19T05:21:20;13.07;;;10.43;;
56927;SDS011;60850;52.502;13.426;2022-08-19T05:24:05;12.82;;;9.80;;
56927;SDS011;60850;52.502;13.426;2022-08-19T05:26:34;13.43;;;10.45;;
56927;SDS011;60850;52.502;13.426;2022-08-19T05:29:01;12.05;;;10.80;;
56927;SDS011;60850;52.502;13.426;2022-08-19T05:31:28;16.52;;;10.57;;
56927;SDS011;60850;52.502;13.426;2022-08-19T05:33:56;13.25;;;9.50;;
56927;SDS011;60850;52.502;13.426;2022-08-19T05:36:25;12.73;;;10.50;;
56927;SDS011;60850;52.502;13.426;2022-08-19T05:38:53;13.77;;;10.27;;
56927;SDS011;60850;52.502;13.426;2022-08-19T05:41:21;14.15;;;9.82;;
56927;SDS011;60850;52.502;13.426;2022-08-19T05:43:55;11.50;;;9.65;;
56927;SDS011;60850;52.502;13.426;2022-08-19T05:46:23;11.85;;;9.68;;
56927;SDS011;60850;52.502;13.426;2022-08-19T05:48:50;17.65;;;10.30;;
56927;SDS011;60850;52.502;13.426;2022-08-19T05:51:16;15.75;;;10.05;;
56927;SDS011;60850;52.502;13.426;2022-08-19T05:53:45;13.18;;;10.60;;
56927;SDS011;60850;52.502;13.426;2022-08-19T05:56:12;10.98;;;9.88;;
56927;SDS011;60850;52.502;13.426;2022-08-19T05:58:41;11.80;;;10.27;;
56927;SDS011;60850;52.502;13.426;2022-08-19T06:01:11;14.05;;;10.30;;
56927;SDS011;60850;52.502;13.426;2022-08-19T06:03:39;11.13;;;9.85;;
56927;SDS011;60850;52.502;13.426;2022-08-19T06:06:07;12.77;;;10.90;;
56927;SDS011;60850;52.502;13.426;2022-08-19T06:08:36;12.35;;;10.40;;
56927;SDS011;60850;52.502;13.426;2022-08-19T06:11:15;11.95;;;10.27;;
56927;SDS011;60850;52.502;13.426;2022-08-19T06:13:44;13.43;;;10.23;;
56927;SDS011;60850;52.502;13.426;2022-08-19T06:16:15;15.13;;;11.05;;
56927;SDS011;60850;52.502;13.426;2022-08-19T06:18:48;14.10;;;11.48;;
56927;SDS011;60850;52.502;13.426;2022-08-19T06:21:17;14.77;;;11.65;;
56927;SDS011;60850;52.502;13.426;2022-08-19T06:23:45;14.20;;;11.10;;
56927;SDS011;60850;52.502;13.426;2022-08-19T06:26:12;14.93;;;12.43;;
56927;SDS011;60850;52.502;13.426;2022-08-19T06:28:41;12.57;;;11.00;;
56927;SDS011;60850;52.502;13.426;2022-08-19T06:31:12;13.40;;;11.43;;
56927;SDS011;60850;52.502;13.426;2022-08-19T06:33:40;15.13;;;11.18;;
56927;SDS011;60850;52.502;13.426;2022-08-19T06:36:07;14.43;;;11.43;;
56927;SDS011;60850;52.502;13.426;2022-08-19T06:38:42;14.65;;;12.05;;
56927;SDS011;60850;52.502;13.426;2022-08-19T06:41:09;13.55;;;11.65;;
56927;SDS011;60850;52.502;13.426;2022-08-19T06:43:36;13.75;;;10.98;;
56927;SDS011;60850;52.502;13.426;2022-08-19T06:46:08;12.75;;;11.40;;
56927;SDS011;60850;52.502;13.426;2022-08-19T06:48:37;17.40;;;11.75;;
56927;SDS011;60850;52.502;13.426;2022-08-19T06:51:04;14.40;;;11.48;;
56927;SDS011;60850;52.502;13.426;2022-08-19T06:53:32;14.88;;;13.07;;
56927;SDS011;60850;52.502;13.426;2022-08-19T06:55:59;15.80;;;12.57;;
56927;SDS011;60850;52.502;13.426;2022-08-19T06:58:28;15.43;;;12.15;;
56927;SDS011;60850;52.502;13.426;2022-08-19T07:00:58;15.20;;;12.15;;
56927;SDS011;60850;52.502;13.426;2022-08-19T07:03:29;17.00;;;12.57;;
56927;SDS011;60850;52.502;13.426;2022-08-19T07:05:57;17.35;;;12.93;;
56927;SDS011;60850;52.502;13.426;2022-08-19T07:08:28;14.13;;;12.60;;
56927;SDS011;60850;52.502;13.426;2022-08-19T07:10:55;16.35;;;12.75;;
56927;SDS011;60850;52.502;13.426;2022-08-19T07:13:22;18.05;;;12.73;;
56927;SDS011;60850;52.502;13.426;2022-08-19T07:15:50;16.48;;;12.15;;
56927;SDS011;60850;52.502;13.426;2022-08-19T07:18:17;15.70;;;13.00;;
56927;SDS011;60850;52.502;13.426;2022-08-19T07:20:47;15.07;;;12.23;;
56927;SDS011;60850;52.502;13.426;2022-08-19T07:23:14;14.88;;;12.68;;
56927;SDS011;60850;52.502;13.426;2022-08-19T07:25:41;14.88;;;12.77;;
56927;SDS011;60850;52.502;13.426;2022-08-19T07:28:08;15.68;;;12.57;;
56927;SDS011;60850;52.502;13.426;2022-08-19T07:30:36;15.30;;;13.10;;
56927;SDS011;60850;52.502;13.426;2022-08-19T07:33:06;16.08;;;12.82;;
56927;SDS011;60850;52.502;13.426;2022-08-19T07:35:33;17.75;;;14.48;;
56927;SDS011;60850;52.502;13.426;2022-08-19T07:38:01;16.30;;;13.52;;
56927;SDS011;60850;52.502;13.426;2022-08-19T07:40:31;16.25;;;13.05;;
56927;SDS011;60850;52.502;13.426;2022-08-19T07:42:58;14.55;;;12.98;;
56927;SDS011;60850;52.502;13.426;2022-08-19T07:45:25;17.15;;;13.52;;
56927;SDS011;60850;52.502;13.426;2022-08-19T07:47:53;17.77;;;13.15;;
56927;SDS011;60850;52.502;13.426;2022-08-19T07:50:21;17.23;;;13.45;;
56927;SDS011;60850;52.502;13.426;2022-08-19T07:52:48;15.55;;;13.25;;
56927;SDS011;60850;52.502;13.426;2022-08-19T07:55:20;14.95;;;13.25;;
56927;SDS011;60850;52.502;13.426;2022-08-19T07:57:49;16.27;;;14.15;;
56927;SDS011;60850;52.502;13.426;2022-08-19T08:00:17;18.30;;;14.02;;
56927;SDS011;60850;52.502;13.426;2022-08-19T08:02:44;21.45;;;15.05;;
56927;SDS011;60850;52.502;13.426;2022-08-19T08:05:11;18.90;;;14.30;;
56927;SDS011;60850;52.502;13.426;2022-08-19T08:07:55;17.20;;;13.52;;
56927;SDS011;60850;52.502;13.426;2022-08-19T08:10:42;20.95;;;13.52;;
56927;SDS011;60850;52.502;13.426;2022-08-19T08:13:08;17.08;;;14.43;;
56927;SDS011;60850;52.502;13.426;2022-08-19T08:15:35;18.33;;;13.52;;
56927;SDS011;60850;52.502;13.426;2022-08-19T08:18:03;17.27;;;15.15;;
56927;SDS011;60850;52.502;13.426;2022-08-19T08:20:31;17.88;;;14.15;;
56927;SDS011;60850;52.502;13.426;2022-08-19T08:22:58;19.85;;;14.75;;
56927;SDS011;60850;52.502;13.426;2022-08-19T08:25:44;18.95;;;14.88;;
56927;SDS011;60850;52.502;13.426;2022-08-19T08:28:10;18.27;;;15.07;;
56927;SDS011;60850;52.502;13.426;2022-08-19T08:30:37;18.02;;;15.18;;
56927;SDS011;60850;52.502;13.426;2022-08-19T08:33:07;19.75;;;14.35;;
56927;SDS011;60850;52.502;13.426;2022-08-19T08:35:34;18.90;;;14.77;;
56927;SDS011;60850;52.502;13.426;2022-08-19T08:38:01;15.80;;;14.20;;
56927;SDS011;60850;52.502;13.426;2022-08-19T08:40:30;15.93;;;14.23;;
56927;SDS011;60850;52.502;13.426;2022-08-19T08:43:07;16.45;;;14.07;;
56927;SDS011;60850;52.502;13.426;2022-08-19T08:45:41;15.88;;;13.75;;
56927;SDS011;60850;52.502;13.426;2022-08-19T08:48:15;17.23;;;14.10;;
56927;SDS011;60850;52.502;13.426;2022-08-19T08:50:47;19.23;;;14.60;;
56927;SDS011;60850;52.502;13.426;2022-08-19T08:53:17;18.70;;;13.40;;
56927;SDS011;60850;52.502;13.426;2022-08-19T08:55:45;18.33;;;14.35;;
56927;SDS011;60850;52.502;13.426;2022-08-19T08:58:15;17.17;;;14.52;;
56927;SDS011;60850;52.502;13.426;2022-08-19T09:00:51;19.38;;;15.23;;
56927;SDS011;60850;52.502;13.426;2022-08-19T09:03:19;16.27;;;14.02;;
56927;SDS011;60850;52.502;13.426;2022-08-19T09:05:49;17.30;;;14.88;;
56927;SDS011;60850;52.502;13.426;2022-08-19T09:08:26;17.98;;;15.10;;
56927;SDS011;60850;52.502;13.426;2022-08-19T09:11:03;22.75;;;15.38;;
56927;SDS011;60850;52.502;13.426;2022-08-19T09:13:37;20.30;;;16.17;;
56927;SDS011;60850;52.502;13.426;2022-08-19T09:16:12;21.55;;;15.70;;
56927;SDS011;60850;52.502;13.426;2022-08-19T09:18:42;17.88;;;15.90;;
56927;SDS011;60850;52.502;13.426;2022-08-19T09:21:11;18.80;;;15.32;;
56927;SDS011;60850;52.502;13.426;2022-08-19T09:23:38;16.65;;;14.95;;
56927;SDS011;60850;52.502;13.426;2022-08-19T09:26:07;16.98;;;15.18;;
56927;SDS011;60850;52.502;13.426;2022-08-19T09:28:36;20.80;;;14.93;;
56927;SDS011;60850;52.502;13.426;2022-08-19T09:31:03;18.52;;;14.40;;
56927;SDS011;60850;52.502;13.426;2022-08-19T09:33:30;18.63;;;14.35;;
56927;SDS011;60850;52.502;13.426;2022-08-19T09:36:02;19.00;;;14.85;;
56927;SDS011;60850;52.502;13.426;2022-08-19T09:38:31;17.13;;;14.48;;
56927;SDS011;60850;52.502;13.426;2022-08-19T09:41:01;17.30;;;14.52;;
56927;SDS011;60850;52.502;13.426;2022-08-19T09:43:30;15.45;;;13.85;;
56927;SDS011;60850;52.502;13.426;2022-08-19T09:45:58;16.05;;;12.88;;
56927;SDS011;60850;52.502;13.426;2022-08-19T09:48:26;16.73;;;13.25;;
56927;SDS011;60850;52.502;13.426;2022-08-19T09:50:53;18.65;;;14.05;;
56927;SDS011;60850;52.502;13.426;2022-08-19T09:53:20;15.45;;;13.82;;
56927;SDS011;60850;52.502;13.426;2022-08-19T09:55:48;15.98;;;14.00;;
56927;SDS011;60850;52.502;13.426;2022-08-19T09:58:15;16.13;;;13.15;;
56927;SDS011;60850;52.502;13.426;2022-08-19T10:00:43;16.05;;;13.40;;
56927;SDS011;60850;52.502;13.426;2022-08-19T10:03:12;18.20;;;13.13;;
56927;SDS011;60850;52.502;13.426;2022-08-19T10:05:39;15.30;;;12.88;;
56927;SDS011;60850;52.502;13.426;2022-08-19T10:08:17;15.30;;;12.90;;
56927;SDS011;60850;52.502;13.426;2022-08-19T10:10:45;14.43;;;13.02;;
56927;SDS011;60850;52.502;13.426;2022-08-19T10:13:13;17.73;;;13.55;;
56927;SDS011;60850;52.502;13.426;2022-08-19T10:15:42;14.10;;;12.55;;
56927;SDS011;60850;52.502;13.426;2022-08-19T10:18:11;15.98;;;13.25;;
56927;SDS011;60850;52.502;13.426;2022-08-19T10:20:38;15.10;;;13.57;;
56927;SDS011;60850;52.502;13.426;2022-08-19T10:23:07;16.17;;;14.18;;
56927;SDS011;60850;52.502;13.426;2022-08-19T10:25:34;18.73;;;14.38;;
56927;SDS011;60850;52.502;13.426;2022-08-19T10:28:01;17.95;;;15.55;;
56927;SDS011;60850;52.502;13.426;2022-08-19T10:30:28;17.20;;;13.90;;
56927;SDS011;60850;52.502;13.426;2022-08-19T10:32:55;17.17;;;14.95;;
56927;SDS011;60850;52.502;13.426;2022-08-19T10:35:23;19.83;;;14.85;;
56927;SDS011;60850;52.502;13.426;2022-08-19T10:37:52;15.93;;;14.23;;
56927;SDS011;60850;52.502;13.426;2022-08-19T10:40:18;15.40;;;13.73;;
56927;SDS011;60850;52.502;13.426;2022-08-19T10:42:45;18.40;;;14.38;;
56927;SDS011;60850;52.502;13.426;2022-08-19T10:45:12;18.40;;;14.90;;
56927;SDS011;60850;52.502;13.426;2022-08-19T10:47:39;15.75;;;13.43;;
56927;SDS011;60850;52.502;13.426;2022-08-19T10:50:06;14.18;;;12.70;;
56927;SDS011;60850;52.502;13.426;2022-08-19T10:52:53;19.88;;;15.63;;
56927;SDS011;60850;52.502;13.426;2022-08-19T10:55:20;16.58;;;13.40;;
56927;SDS011;60850;52.502;13.426;2022-08-19T10:58:09;19.73;;;13.82;;
56927;SDS011;60850;52.502;13.426;2022-08-19T11:00:38;17.13;;;12.75;;
56927;SDS011;60850;52.502;13.426;2022-08-19T11:03:06;19.15;;;13.13;;
56927;SDS011;60850;52.502;13.426;2022-08-19T11:05:33;16.15;;;12.75;;
56927;SDS011;60850;52.502;13.426;2022-08-19T11:08:02;16.75;;;12.32;;
56927;SDS011;60850;52.502;13.426;2022-08-19T11:10:29;15.38;;;12.65;;
56927;SDS011;60850;52.502;13.426;2022-08-19T11:12:58;17.77;;;14.20;;
56927;SDS011;60850;52.502;13.426;2022-08-19T11:15:25;14.50;;;13.00;;
56927;SDS011;60850;52.502;13.426;2022-08-19T11:17:53;15.38;;;12.70;;
56927;SDS011;60850;52.502;13.426;2022-08-19T11:20:21;15.38;;;12.52;;
56927;SDS011;60850;52.502;13.426;2022-08-19T11:22:49;19.58;;;13.43;;
56927;SDS011;60850;52.502;13.426;2022-08-19T11:25:20;16.40;;;13.45;;
56927;SDS011;60850;52.502;13.426;2022-08-19T11:27:47;14.25;;;12.65;;
56927;SDS011;60850;52.502;13.426;2022-08-19T11:30:16;14.20;;;12.70;;
56927;SDS011;60850;52.502;13.426;2022-08-19T11:32:43;13.35;;;11.88;;
56927;SDS011;60850;52.502;13.426;2022-08-19T11:35:10;13.25;;;11.95;;
56927;SDS011;60850;52.502;13.426;2022-08-19T11:37:37;16.02;;;12.02;;
56927;SDS011;60850;52.502;13.426;2022-08-19T11:40:05;13.73;;;12.32;;
56927;SDS011;60850;52.502;13.426;2022-08-19T11:42:34;14.57;;;11.18;;
56927;SDS011;60850;52.502;13.426;2022-08-19T11:45:19;17.63;;;11.80;;
56927;SDS011;60850;52.502;13.426;2022-08-19T11:47:46;16.25;;;10.05;;
56927;SDS011;60850;52.502;13.426;2022-08-19T11:50:13;15.60;;;11.98;;
56927;SDS011;60850;52.502;13.426;2022-08-19T11:52:40;14.88;;;11.27;;
56927;SDS011;60850;52.502;13.426;2022-08-19T11:55:09;13.80;;;10.50;;
56927;SDS011;60850;52.502;13.426;2022-08-19T11:57:37;15.82;;;11.32;;
56927;SDS011;60850;52.502;13.426;2022-08-19T12:00:06;13.93;;;11.27;;
56927;SDS011;60850;52.502;13.426;2022-08-19T12:02:35;12.68;;;10.68;;
56927;SDS011;60850;52.502;13.426;2022-08-19T12:05:02;12.05;;;10.20;;
56927;SDS011;60850;52.502;13.426;2022-08-19T12:07:30;12.38;;;9.77;;
56927;SDS011;60850;52.502;13.426;2022-08-19T12:09:58;14.07;;;9.55;;
56927;SDS011;60850;52.502;13.426;2022-08-19T12:12:26;11.77;;;10.27;;
56927;SDS011;60850;52.502;13.426;2022-08-19T12:14:55;12.23;;;10.32;;
56927;SDS011;60850;52.502;13.426;2022-08-19T12:17:24;11.55;;;10.07;;
56927;SDS011;60850;52.502;13.426;2022-08-19T12:19:52;11.13;;;9.98;;
56927;SDS011;60850;52.502;13.426;2022-08-19T12:22:19;12.02;;;9.88;;
56927;SDS011;60850;52.502;13.426;2022-08-19T12:24:46;12.63;;;10.30;;
56927;SDS011;60850;52.502;13.426;2022-08-19T12:27:16;11.05;;;9.60;;
56927;SDS011;60850;52.502;13.426;2022-08-19T12:29:43;15.90;;;10.60;;
56927;SDS011;60850;52.502;13.426;2022-08-19T12:32:11;10.88;;;9.73;;
56927;SDS011;60850;52.502;13.426;2022-08-19T12:34:38;11.68;;;9.40;;
56927;SDS011;60850;52.502;13.426;2022-08-19T12:37:06;10.20;;;9.15;;
56927;SDS011;60850;52.502;13.426;2022-08-19T12:39:34;10.38;;;8.50;;
56927;SDS011;60850;52.502;13.426;2022-08-19T12:42:02;10.30;;;8.48;;
56927;SDS011;60850;52.502;13.426;2022-08-19T12:44:29;9.32;;;7.97;;
56927;SDS011;60850;52.502;13.426;2022-08-19T12:46:57;10.95;;;8.48;;
56927;SDS011;60850;52.502;13.426;2022-08-19T12:49:28;9.38;;;8.43;;
56927;SDS011;60850;52.502;13.426;2022-08-19T12:51:55;9.60;;;8.55;;
56927;SDS011;60850;52.502;13.426;2022-08-19T12:54:23;10.20;;;8.50;;
56927;SDS011;60850;52.502;13.426;2022-08-19T12:56:50;11.23;;;8.85;;
56927;SDS011;60850;52.502;13.426;2022-08-19T12:59:17;9.80;;;8.80;;
56927;SDS011;60850;52.502;13.426;2022-08-19T13:01:44;9.63;;;8.48;;
56927;SDS011;60850;52.502;13.426;2022-08-19T13:04:11;10.30;;;8.02;;
56927;SDS011;60850;52.502;13.426;2022-08-19T13:06:40;10.10;;;9.07;;
56927;SDS011;60850;52.502;13.426;2022-08-19T13:09:07;10.38;;;8.38;;
56927;SDS011;60850;52.502;13.426;2022-08-19T13:11:35;9.82;;;8.20;;
56927;SDS011;60850;52.502;13.426;2022-08-19T13:14:03;13.43;;;11.23;;
56927;SDS011;60850;52.502;13.426;2022-08-19T13:16:31;9.98;;;8.80;;
56927;SDS011;60850;52.502;13.426;2022-08-19T13:18:58;10.95;;;9.15;;
56927;SDS011;60850;52.502;13.426;2022-08-19T13:21:28;10.80;;;8.95;;
56927;SDS011;60850;52.502;13.426;2022-08-19T13:23:57;11.32;;;8.95;;
56927;SDS011;60850;52.502;13.426;2022-08-19T13:26:24;10.90;;;9.73;;
56927;SDS011;60850;52.502;13.426;2022-08-19T13:28:52;10.40;;;8.98;;
56927;SDS011;60850;52.502;13.426;2022-08-19T13:31:39;10.32;;;9.18;;
56927;SDS011;60850;52.502;13.426;2022-08-19T13:34:28;11.73;;;9.93;;
56927;SDS011;60850;52.502;13.426;2022-08-19T13:36:57;10.90;;;9.80;;
56927;SDS011;60850;52.502;13.426;2022-08-19T13:39:26;10.73;;;9.60;;
56927;SDS011;60850;52.502;13.426;2022-08-19T13:41:53;11.20;;;10.00;;
56927;SDS011;60850;52.502;13.426;2022-08-19T13:44:20;13.43;;;10.73;;
56927;SDS011;60850;52.502;13.426;2022-08-19T13:46:47;10.88;;;9.88;;
56927;SDS011;60850;52.502;13.426;2022-08-19T13:49:18;11.50;;;10.32;;
56927;SDS011;60850;52.502;13.426;2022-08-19T13:51:45;13.35;;;10.27;;
56927;SDS011;60850;52.502;13.426;2022-08-19T13:54:13;12.50;;;9.75;;
56927;SDS011;60850;52.502;13.426;2022-08-19T13:56:41;10.88;;;9.77;;
56927;SDS011;60850;52.502;13.426;2022-08-19T13:59:10;12.48;;;10.65;;
56927;SDS011;60850;52.502;13.426;2022-08-19T14:01:38;11.68;;;9.70;;
56927;SDS011;60850;52.502;13.426;2022-08-19T14:04:05;11.15;;;9.98;;
56927;SDS011;60850;52.502;13.426;2022-08-19T14:06:33;16.05;;;11.35;;
56927;SDS011;60850;52.502;13.426;2022-08-19T14:09:00;11.35;;;10.10;;
56927;SDS011;60850;52.502;13.426;2022-08-19T14:11:28;13.73;;;10.60;;
56927;SDS011;60850;52.502;13.426;2022-08-19T14:13:57;14.07;;;10.88;;
56927;SDS011;60850;52.502;13.426;2022-08-19T14:16:24;14.95;;;10.50;;
56927;SDS011;60850;52.502;13.426;2022-08-19T14:18:52;13.20;;;10.55;;
56927;SDS011;60850;52.502;13.426;2022-08-19T14:21:20;11.60;;;10.40;;